sensor_id;sensor_type;location;lat;lon;timestamp;P1;durP1;ratioP1;P2;durP2;ratioP2
31224;SDS011;17847;31.524;74.366;2023-09-07T00:01:37;24.50;;;18.10;;
31224;SDS011;17847;31.524;74.366;2023-09-07T00:04:26;22.40;;;17.60;;
31224;SDS011;17847;31.524;74.366;2023-09-07T00:07:16;26.23;;;18.30;;
31224;SDS011;17847;31.524;74.366;2023-09-07T00:10:06;26.50;;;17.60;;
31224;SDS011;17847;31.524;74.366;2023-09-07T00:12:56;30.40;;;18.67;;
31224;SDS011;17847;31.524;74.366;2023-09-07T00:15:46;25.92;;;17.85;;
31224;SDS011;17847;31.524;74.366;2023-09-07T00:18:36;33.72;;;18.38;;
31224;SDS011;17847;31.524;74.366;2023-09-07T00:21:26;25.25;;;18.25;;
31224;SDS011;17847;31.524;74.366;2023-09-07T00:24:16;28.95;;;20.55;;
31224;SDS011;17847;31.524;74.366;2023-09-07T00:27:06;35.92;;;20.58;;
31224;SDS011;17847;31.524;74.366;2023-09-07T00:29:56;33.42;;;21.70;;
31224;SDS011;17847;31.524;74.366;2023-09-07T00:32:46;43.63;;;22.92;;
31224;SDS011;17847;31.524;74.366;2023-09-07T00:35:36;31.00;;;22.60;;
31224;SDS011;17847;31.524;74.366;2023-09-07T00:38:26;33.53;;;22.85;;
31224;SDS011;17847;31.524;74.366;2023-09-07T00:41:16;36.72;;;24.80;;
31224;SDS011;17847;31.524;74.366;2023-09-07T00:44:06;39.17;;;24.88;;
31224;SDS011;17847;31.524;74.366;2023-09-07T00:46:56;36.53;;;24.73;;
31224;SDS011;17847;31.524;74.366;2023-09-07T00:49:46;37.00;;;25.60;;
31224;SDS011;17847;31.524;74.366;2023-09-07T00:52:37;36.10;;;25.48;;
31224;SDS011;17847;31.524;74.366;2023-09-07T00:55:28;37.28;;;26.75;;
31224;SDS011;17847;31.524;74.366;2023-09-07T00:58:21;32.20;;;24.77;;
31224;SDS011;17847;31.524;74.366;2023-09-07T01:01:11;35.50;;;24.00;;
31224;SDS011;17847;31.524;74.366;2023-09-07T01:04:01;32.88;;;23.40;;
31224;SDS011;17847;31.524;74.366;2023-09-07T01:06:52;43.13;;;25.13;;
31224;SDS011;17847;31.524;74.366;2023-09-07T01:09:54;34.03;;;25.40;;
31224;SDS011;17847;31.524;74.366;2023-09-07T01:12:47;41.70;;;24.77;;
31224;SDS011;17847;31.524;74.366;2023-09-07T01:15:37;41.90;;;23.63;;
31224;SDS011;17847;31.524;74.366;2023-09-07T01:18:27;30.92;;;22.63;;
31224;SDS011;17847;31.524;74.366;2023-09-07T01:21:17;29.05;;;21.17;;
31224;SDS011;17847;31.524;74.366;2023-09-07T01:24:08;29.42;;;20.55;;
31224;SDS011;17847;31.524;74.366;2023-09-07T01:27:00;36.03;;;22.90;;
31224;SDS011;17847;31.524;74.366;2023-09-07T01:29:54;32.65;;;21.20;;
31224;SDS011;17847;31.524;74.366;2023-09-07T01:32:44;33.70;;;21.33;;
31224;SDS011;17847;31.524;74.366;2023-09-07T01:35:34;35.88;;;20.02;;
31224;SDS011;17847;31.524;74.366;2023-09-07T01:38:26;41.25;;;22.50;;
31224;SDS011;17847;31.524;74.366;2023-09-07T01:41:16;47.05;;;21.33;;
31224;SDS011;17847;31.524;74.366;2023-09-07T01:44:06;41.78;;;21.10;;
31224;SDS011;17847;31.524;74.366;2023-09-07T01:46:56;40.03;;;22.15;;
31224;SDS011;17847;31.524;74.366;2023-09-07T01:49:49;41.28;;;22.48;;
31224;SDS011;17847;31.524;74.366;2023-09-07T01:52:39;33.78;;;20.45;;
31224;SDS011;17847;31.524;74.366;2023-09-07T01:55:28;40.75;;;22.58;;
31224;SDS011;17847;31.524;74.366;2023-09-07T01:58:19;43.28;;;22.50;;
31224;SDS011;17847;31.524;74.366;2023-09-07T02:01:22;39.95;;;22.25;;
31224;SDS011;17847;31.524;74.366;2023-09-07T02:04:13;33.25;;;22.35;;
31224;SDS011;17847;31.524;74.366;2023-09-07T02:07:03;32.22;;;21.23;;
31224;SDS011;17847;31.524;74.366;2023-09-07T02:09:53;33.08;;;20.98;;
31224;SDS011;17847;31.524;74.366;2023-09-07T02:12:45;41.30;;;23.83;;
31224;SDS011;17847;31.524;74.366;2023-09-07T02:15:38;43.28;;;20.40;;
31224;SDS011;17847;31.524;74.366;2023-09-07T02:18:28;27.05;;;17.50;;
31224;SDS011;17847;31.524;74.366;2023-09-07T02:21:18;36.60;;;18.05;;
31224;SDS011;17847;31.524;74.366;2023-09-07T02:24:08;29.83;;;16.75;;
31224;SDS011;17847;31.524;74.366;2023-09-07T02:26:58;32.63;;;19.48;;
31224;SDS011;17847;31.524;74.366;2023-09-07T02:29:47;34.40;;;20.75;;
31224;SDS011;17847;31.524;74.366;2023-09-07T02:32:37;30.92;;;20.42;;
31224;SDS011;17847;31.524;74.366;2023-09-07T02:35:28;37.25;;;21.55;;
31224;SDS011;17847;31.524;74.366;2023-09-07T02:38:18;41.30;;;22.48;;
31224;SDS011;17847;31.524;74.366;2023-09-07T02:41:08;32.35;;;19.25;;
31224;SDS011;17847;31.524;74.366;2023-09-07T02:43:58;30.08;;;19.58;;
31224;SDS011;17847;31.524;74.366;2023-09-07T02:46:49;28.42;;;17.15;;
31224;SDS011;17847;31.524;74.366;2023-09-07T02:49:38;29.00;;;17.77;;
31224;SDS011;17847;31.524;74.366;2023-09-07T02:52:29;32.30;;;20.10;;
31224;SDS011;17847;31.524;74.366;2023-09-07T02:55:19;29.45;;;19.15;;
31224;SDS011;17847;31.524;74.366;2023-09-07T02:58:09;32.28;;;18.85;;
31224;SDS011;17847;31.524;74.366;2023-09-07T03:00:58;33.15;;;18.45;;
31224;SDS011;17847;31.524;74.366;2023-09-07T03:03:48;29.35;;;18.65;;
31224;SDS011;17847;31.524;74.366;2023-09-07T03:06:41;36.20;;;19.20;;
31224;SDS011;17847;31.524;74.366;2023-09-07T03:09:30;33.90;;;21.15;;
31224;SDS011;17847;31.524;74.366;2023-09-07T03:12:20;33.78;;;20.25;;
31224;SDS011;17847;31.524;74.366;2023-09-07T03:15:12;35.15;;;20.42;;
31224;SDS011;17847;31.524;74.366;2023-09-07T03:18:02;32.15;;;18.00;;
31224;SDS011;17847;31.524;74.366;2023-09-07T03:20:53;33.25;;;18.77;;
31224;SDS011;17847;31.524;74.366;2023-09-07T03:23:47;30.48;;;19.05;;
31224;SDS011;17847;31.524;74.366;2023-09-07T03:26:36;27.52;;;18.90;;
31224;SDS011;17847;31.524;74.366;2023-09-07T03:29:26;29.80;;;20.10;;
31224;SDS011;17847;31.524;74.366;2023-09-07T03:32:15;34.58;;;19.30;;
31224;SDS011;17847;31.524;74.366;2023-09-07T03:35:05;33.92;;;19.13;;
31224;SDS011;17847;31.524;74.366;2023-09-07T03:37:59;28.42;;;17.77;;
31224;SDS011;17847;31.524;74.366;2023-09-07T03:40:49;26.58;;;18.73;;
31224;SDS011;17847;31.524;74.366;2023-09-07T03:43:39;27.30;;;18.67;;
31224;SDS011;17847;31.524;74.366;2023-09-07T03:46:29;31.00;;;17.17;;
31224;SDS011;17847;31.524;74.366;2023-09-07T03:49:20;29.00;;;16.02;;
31224;SDS011;17847;31.524;74.366;2023-09-07T03:52:10;26.58;;;16.65;;
31224;SDS011;17847;31.524;74.366;2023-09-07T03:55:00;27.95;;;17.48;;
31224;SDS011;17847;31.524;74.366;2023-09-07T03:57:50;29.25;;;16.17;;
31224;SDS011;17847;31.524;74.366;2023-09-07T04:00:43;18.13;;;14.10;;
31224;SDS011;17847;31.524;74.366;2023-09-07T04:03:33;24.45;;;13.82;;
31224;SDS011;17847;31.524;74.366;2023-09-07T04:06:23;26.50;;;16.20;;
31224;SDS011;17847;31.524;74.366;2023-09-07T04:09:13;34.45;;;15.40;;
31224;SDS011;17847;31.524;74.366;2023-09-07T04:12:03;22.75;;;15.60;;
31224;SDS011;17847;31.524;74.366;2023-09-07T04:14:53;22.95;;;13.70;;
31224;SDS011;17847;31.524;74.366;2023-09-07T04:17:43;28.85;;;14.55;;
31224;SDS011;17847;31.524;74.366;2023-09-07T04:20:33;23.70;;;14.20;;
31224;SDS011;17847;31.524;74.366;2023-09-07T04:23:22;28.52;;;14.20;;
31224;SDS011;17847;31.524;74.366;2023-09-07T04:26:12;20.83;;;13.30;;
31224;SDS011;17847;31.524;74.366;2023-09-07T04:29:02;26.13;;;12.23;;
31224;SDS011;17847;31.524;74.366;2023-09-07T04:31:52;24.13;;;12.80;;
31224;SDS011;17847;31.524;74.366;2023-09-07T04:34:42;23.60;;;12.38;;
31224;SDS011;17847;31.524;74.366;2023-09-07T04:37:32;19.67;;;10.60;;
31224;SDS011;17847;31.524;74.366;2023-09-07T04:40:22;22.02;;;10.93;;
31224;SDS011;17847;31.524;74.366;2023-09-07T04:43:13;19.15;;;9.63;;
31224;SDS011;17847;31.524;74.366;2023-09-07T04:46:03;24.70;;;11.63;;
31224;SDS011;17847;31.524;74.366;2023-09-07T04:48:53;19.33;;;10.35;;
31224;SDS011;17847;31.524;74.366;2023-09-07T04:51:43;17.95;;;9.52;;
31224;SDS011;17847;31.524;74.366;2023-09-07T04:54:36;16.73;;;8.93;;
31224;SDS011;17847;31.524;74.366;2023-09-07T04:57:26;17.95;;;7.57;;
31224;SDS011;17847;31.524;74.366;2023-09-07T05:00:15;12.18;;;7.53;;
31224;SDS011;17847;31.524;74.366;2023-09-07T05:03:05;16.75;;;8.90;;
31224;SDS011;17847;31.524;74.366;2023-09-07T05:05:55;16.83;;;9.68;;
31224;SDS011;17847;31.524;74.366;2023-09-07T05:08:45;19.48;;;10.68;;
31224;SDS011;17847;31.524;74.366;2023-09-07T05:11:35;16.10;;;9.43;;
31224;SDS011;17847;31.524;74.366;2023-09-07T05:14:25;21.15;;;8.80;;
31224;SDS011;17847;31.524;74.366;2023-09-07T05:17:14;25.40;;;15.27;;
31224;SDS011;17847;31.524;74.366;2023-09-07T05:20:04;24.15;;;12.82;;
31224;SDS011;17847;31.524;74.366;2023-09-07T05:22:55;28.00;;;14.27;;
31224;SDS011;17847;31.524;74.366;2023-09-07T05:25:49;36.38;;;16.05;;
31224;SDS011;17847;31.524;74.366;2023-09-07T05:28:45;30.50;;;16.25;;
31224;SDS011;17847;31.524;74.366;2023-09-07T05:31:35;26.30;;;17.48;;
31224;SDS011;17847;31.524;74.366;2023-09-07T05:34:25;37.88;;;19.58;;
31224;SDS011;17847;31.524;74.366;2023-09-07T05:37:16;39.45;;;20.67;;
31224;SDS011;17847;31.524;74.366;2023-09-07T05:40:09;33.22;;;18.27;;
31224;SDS011;17847;31.524;74.366;2023-09-07T05:42:59;39.45;;;19.40;;
31224;SDS011;17847;31.524;74.366;2023-09-07T05:45:48;43.92;;;19.30;;
31224;SDS011;17847;31.524;74.366;2023-09-07T05:48:38;37.95;;;21.95;;
31224;SDS011;17847;31.524;74.366;2023-09-07T05:51:29;42.63;;;22.00;;
31224;SDS011;17847;31.524;74.366;2023-09-07T05:54:18;38.55;;;19.92;;
31224;SDS011;17847;31.524;74.366;2023-09-07T05:57:08;36.10;;;19.85;;
31224;SDS011;17847;31.524;74.366;2023-09-07T05:59:58;35.35;;;20.65;;
31224;SDS011;17847;31.524;74.366;2023-09-07T06:02:59;38.53;;;20.08;;
31224;SDS011;17847;31.524;74.366;2023-09-07T06:05:50;41.72;;;21.15;;
31224;SDS011;17847;31.524;74.366;2023-09-07T06:08:41;39.53;;;19.17;;
31224;SDS011;17847;31.524;74.366;2023-09-07T06:11:32;34.97;;;17.42;;
31224;SDS011;17847;31.524;74.366;2023-09-07T06:14:25;25.77;;;16.67;;
31224;SDS011;17847;31.524;74.366;2023-09-07T06:17:15;34.17;;;16.45;;
31224;SDS011;17847;31.524;74.366;2023-09-07T06:20:05;39.10;;;15.93;;
31224;SDS011;17847;31.524;74.366;2023-09-07T06:22:58;35.53;;;14.60;;
31224;SDS011;17847;31.524;74.366;2023-09-07T06:25:48;30.45;;;14.52;;
31224;SDS011;17847;31.524;74.366;2023-09-07T06:28:38;25.48;;;14.68;;
31224;SDS011;17847;31.524;74.366;2023-09-07T06:31:30;26.52;;;15.50;;
31224;SDS011;17847;31.524;74.366;2023-09-07T06:34:20;29.77;;;15.13;;
31224;SDS011;17847;31.524;74.366;2023-09-07T06:37:10;24.63;;;14.43;;
31224;SDS011;17847;31.524;74.366;2023-09-07T06:40:02;27.05;;;15.05;;
31224;SDS011;17847;31.524;74.366;2023-09-07T06:42:52;31.08;;;14.70;;
31224;SDS011;17847;31.524;74.366;2023-09-07T06:45:44;27.67;;;14.27;;
31224;SDS011;17847;31.524;74.366;2023-09-07T06:48:35;29.25;;;13.95;;
31224;SDS011;17847;31.524;74.366;2023-09-07T06:51:25;32.58;;;13.57;;
31224;SDS011;17847;31.524;74.366;2023-09-07T06:54:17;30.15;;;13.63;;
31224;SDS011;17847;31.524;74.366;2023-09-07T06:57:07;34.10;;;14.80;;
31224;SDS011;17847;31.524;74.366;2023-09-07T07:00:00;34.80;;;13.83;;
31224;SDS011;17847;31.524;74.366;2023-09-07T07:02:50;30.90;;;12.07;;
31224;SDS011;17847;31.524;74.366;2023-09-07T07:05:41;25.13;;;13.05;;
31224;SDS011;17847;31.524;74.366;2023-09-07T07:08:31;30.80;;;14.73;;
31224;SDS011;17847;31.524;74.366;2023-09-07T07:11:21;26.95;;;14.18;;
31224;SDS011;17847;31.524;74.366;2023-09-07T07:14:10;27.02;;;12.75;;
31224;SDS011;17847;31.524;74.366;2023-09-07T07:17:00;30.80;;;13.82;;
31224;SDS011;17847;31.524;74.366;2023-09-07T07:19:55;26.67;;;13.23;;
31224;SDS011;17847;31.524;74.366;2023-09-07T07:22:45;21.25;;;13.60;;
31224;SDS011;17847;31.524;74.366;2023-09-07T07:25:36;28.73;;;14.25;;
31224;SDS011;17847;31.524;74.366;2023-09-07T07:28:26;28.52;;;13.30;;
31224;SDS011;17847;31.524;74.366;2023-09-07T07:31:16;29.67;;;13.07;;
31224;SDS011;17847;31.524;74.366;2023-09-07T07:34:07;25.77;;;12.23;;
31224;SDS011;17847;31.524;74.366;2023-09-07T07:36:59;21.98;;;10.57;;
31224;SDS011;17847;31.524;74.366;2023-09-07T07:39:49;25.02;;;8.75;;
31224;SDS011;17847;31.524;74.366;2023-09-07T07:42:39;20.05;;;7.70;;
31224;SDS011;17847;31.524;74.366;2023-09-07T07:45:29;15.50;;;7.93;;
31224;SDS011;17847;31.524;74.366;2023-09-07T07:48:22;21.93;;;8.30;;
31224;SDS011;17847;31.524;74.366;2023-09-07T07:51:14;20.05;;;7.03;;
31224;SDS011;17847;31.524;74.366;2023-09-07T07:54:07;22.73;;;7.97;;
31224;SDS011;17847;31.524;74.366;2023-09-07T07:56:58;22.27;;;6.75;;
31224;SDS011;17847;31.524;74.366;2023-09-07T07:59:48;16.00;;;6.10;;
31224;SDS011;17847;31.524;74.366;2023-09-07T08:02:39;18.67;;;7.03;;
31224;SDS011;17847;31.524;74.366;2023-09-07T08:05:31;17.35;;;5.55;;
31224;SDS011;17847;31.524;74.366;2023-09-07T08:08:24;20.45;;;6.43;;
31224;SDS011;17847;31.524;74.366;2023-09-07T08:11:15;15.68;;;5.60;;
31224;SDS011;17847;31.524;74.366;2023-09-07T08:14:05;15.35;;;6.25;;
31224;SDS011;17847;31.524;74.366;2023-09-07T08:17:00;19.30;;;7.07;;
31224;SDS011;17847;31.524;74.366;2023-09-07T08:19:55;17.33;;;7.82;;
31224;SDS011;17847;31.524;74.366;2023-09-07T08:22:46;18.05;;;6.63;;
31224;SDS011;17847;31.524;74.366;2023-09-07T08:25:37;20.33;;;7.20;;
31224;SDS011;17847;31.524;74.366;2023-09-07T08:28:33;15.20;;;6.22;;
31224;SDS011;17847;31.524;74.366;2023-09-07T08:31:25;14.52;;;5.70;;
31224;SDS011;17847;31.524;74.366;2023-09-07T08:34:17;14.85;;;7.68;;
31224;SDS011;17847;31.524;74.366;2023-09-07T08:37:17;14.90;;;6.97;;
31224;SDS011;17847;31.524;74.366;2023-09-07T08:40:17;14.27;;;7.10;;
31224;SDS011;17847;31.524;74.366;2023-09-07T08:43:09;21.50;;;7.20;;
31224;SDS011;17847;31.524;74.366;2023-09-07T08:46:05;17.33;;;7.30;;
31224;SDS011;17847;31.524;74.366;2023-09-07T08:49:11;22.00;;;7.75;;
31224;SDS011;17847;31.524;74.366;2023-09-07T08:52:07;17.20;;;7.10;;
31224;SDS011;17847;31.524;74.366;2023-09-07T08:54:58;21.27;;;7.28;;
31224;SDS011;17847;31.524;74.366;2023-09-07T08:57:51;12.20;;;6.70;;
31224;SDS011;17847;31.524;74.366;2023-09-07T09:00:42;10.38;;;5.97;;
31224;SDS011;17847;31.524;74.366;2023-09-07T09:03:36;16.52;;;6.18;;
31224;SDS011;17847;31.524;74.366;2023-09-07T09:09:23;10.50;;;5.90;;
31224;SDS011;17847;31.524;74.366;2023-09-07T09:12:15;18.95;;;6.10;;
31224;SDS011;17847;31.524;74.366;2023-09-07T09:15:08;17.08;;;6.13;;
31224;SDS011;17847;31.524;74.366;2023-09-07T09:18:08;17.48;;;6.63;;
31224;SDS011;17847;31.524;74.366;2023-09-07T09:21:01;20.48;;;5.30;;
31224;SDS011;17847;31.524;74.366;2023-09-07T09:23:56;17.45;;;5.68;;
31224;SDS011;17847;31.524;74.366;2023-09-07T09:26:47;17.92;;;7.05;;
31224;SDS011;17847;31.524;74.366;2023-09-07T09:29:40;12.88;;;5.60;;
31224;SDS011;17847;31.524;74.366;2023-09-07T09:32:33;13.82;;;5.30;;
31224;SDS011;17847;31.524;74.366;2023-09-07T09:35:28;11.23;;;5.13;;
31224;SDS011;17847;31.524;74.366;2023-09-07T09:38:19;11.07;;;5.30;;
31224;SDS011;17847;31.524;74.366;2023-09-07T09:41:13;17.63;;;5.40;;
31224;SDS011;17847;31.524;74.366;2023-09-07T09:44:09;13.77;;;5.97;;
31224;SDS011;17847;31.524;74.366;2023-09-07T09:47:01;13.35;;;5.95;;
31224;SDS011;17847;31.524;74.366;2023-09-07T09:49:57;12.07;;;4.95;;
31224;SDS011;17847;31.524;74.366;2023-09-07T09:52:56;16.48;;;5.10;;
31224;SDS011;17847;31.524;74.366;2023-09-07T09:55:49;12.32;;;5.35;;
31224;SDS011;17847;31.524;74.366;2023-09-07T09:58:43;12.73;;;4.80;;
31224;SDS011;17847;31.524;74.366;2023-09-07T10:01:41;13.57;;;5.00;;
31224;SDS011;17847;31.524;74.366;2023-09-07T10:04:34;13.25;;;5.20;;
31224;SDS011;17847;31.524;74.366;2023-09-07T10:07:47;15.93;;;6.32;;
31224;SDS011;17847;31.524;74.366;2023-09-07T10:10:40;12.82;;;6.50;;
31224;SDS011;17847;31.524;74.366;2023-09-07T10:13:35;17.52;;;5.50;;
31224;SDS011;17847;31.524;74.366;2023-09-07T10:16:25;17.23;;;5.57;;
31224;SDS011;17847;31.524;74.366;2023-09-07T10:19:20;12.05;;;5.03;;
31224;SDS011;17847;31.524;74.366;2023-09-07T10:22:11;16.80;;;6.68;;
31224;SDS011;17847;31.524;74.366;2023-09-07T10:25:22;13.07;;;5.40;;
31224;SDS011;17847;31.524;74.366;2023-09-07T10:28:19;25.67;;;6.60;;
31224;SDS011;17847;31.524;74.366;2023-09-07T10:31:16;18.52;;;6.88;;
31224;SDS011;17847;31.524;74.366;2023-09-07T10:34:13;14.27;;;5.78;;
31224;SDS011;17847;31.524;74.366;2023-09-07T10:37:27;12.75;;;5.43;;
31224;SDS011;17847;31.524;74.366;2023-09-07T10:40:20;17.15;;;7.72;;
31224;SDS011;17847;31.524;74.366;2023-09-07T10:43:14;15.63;;;6.50;;
31224;SDS011;17847;31.524;74.366;2023-09-07T10:46:04;13.25;;;7.38;;
31224;SDS011;17847;31.524;74.366;2023-09-07T10:48:55;16.40;;;8.15;;
31224;SDS011;17847;31.524;74.366;2023-09-07T10:51:47;21.80;;;8.50;;
31224;SDS011;17847;31.524;74.366;2023-09-07T10:54:45;16.15;;;7.57;;
31224;SDS011;17847;31.524;74.366;2023-09-07T10:57:57;13.68;;;7.40;;
31224;SDS011;17847;31.524;74.366;2023-09-07T11:00:55;24.38;;;7.00;;
31224;SDS011;17847;31.524;74.366;2023-09-07T11:03:49;14.13;;;5.75;;
31224;SDS011;17847;31.524;74.366;2023-09-07T11:06:40;21.13;;;8.23;;
31224;SDS011;17847;31.524;74.366;2023-09-07T11:09:41;24.30;;;9.18;;
31224;SDS011;17847;31.524;74.366;2023-09-07T11:12:38;17.07;;;9.83;;
31224;SDS011;17847;31.524;74.366;2023-09-07T11:15:31;18.70;;;10.88;;
31224;SDS011;17847;31.524;74.366;2023-09-07T11:18:30;20.65;;;10.23;;
31224;SDS011;17847;31.524;74.366;2023-09-07T11:21:23;22.25;;;10.73;;
31224;SDS011;17847;31.524;74.366;2023-09-07T11:24:20;18.25;;;10.07;;
31224;SDS011;17847;31.524;74.366;2023-09-07T11:27:12;20.67;;;11.43;;
31224;SDS011;17847;31.524;74.366;2023-09-07T11:30:06;22.83;;;10.20;;
31224;SDS011;17847;31.524;74.366;2023-09-07T11:35:57;25.67;;;11.32;;
31224;SDS011;17847;31.524;74.366;2023-09-07T11:38:55;26.77;;;10.65;;
31224;SDS011;17847;31.524;74.366;2023-09-07T11:41:45;22.75;;;10.50;;
31224;SDS011;17847;31.524;74.366;2023-09-07T11:44:36;21.73;;;11.52;;
31224;SDS011;17847;31.524;74.366;2023-09-07T11:47:31;18.10;;;9.48;;
31224;SDS011;17847;31.524;74.366;2023-09-07T11:50:23;24.40;;;9.27;;
31224;SDS011;17847;31.524;74.366;2023-09-07T11:53:16;21.80;;;9.63;;
31224;SDS011;17847;31.524;74.366;2023-09-07T11:56:07;32.27;;;11.57;;
31224;SDS011;17847;31.524;74.366;2023-09-07T11:58:57;22.15;;;9.50;;
31224;SDS011;17847;31.524;74.366;2023-09-07T12:02:00;18.90;;;10.98;;
31224;SDS011;17847;31.524;74.366;2023-09-07T12:04:55;22.13;;;11.13;;
31224;SDS011;17847;31.524;74.366;2023-09-07T12:07:51;23.63;;;9.93;;
31224;SDS011;17847;31.524;74.366;2023-09-07T12:10:49;15.85;;;9.45;;
31224;SDS011;17847;31.524;74.366;2023-09-07T12:13:39;19.23;;;10.35;;
31224;SDS011;17847;31.524;74.366;2023-09-07T12:16:29;19.77;;;10.85;;
31224;SDS011;17847;31.524;74.366;2023-09-07T12:19:22;24.92;;;11.38;;
31224;SDS011;17847;31.524;74.366;2023-09-07T12:22:17;27.02;;;11.25;;
31224;SDS011;17847;31.524;74.366;2023-09-07T12:25:07;22.75;;;10.95;;
31224;SDS011;17847;31.524;74.366;2023-09-07T12:28:05;25.98;;;10.75;;
31224;SDS011;17847;31.524;74.366;2023-09-07T12:31:00;21.13;;;11.05;;
31224;SDS011;17847;31.524;74.366;2023-09-07T12:33:54;26.33;;;12.23;;
31224;SDS011;17847;31.524;74.366;2023-09-07T12:36:46;21.75;;;10.90;;
31224;SDS011;17847;31.524;74.366;2023-09-07T12:39:38;23.25;;;12.05;;
31224;SDS011;17847;31.524;74.366;2023-09-07T12:42:29;19.92;;;10.73;;
31224;SDS011;17847;31.524;74.366;2023-09-07T12:45:24;22.73;;;11.05;;
31224;SDS011;17847;31.524;74.366;2023-09-07T12:48:16;19.33;;;9.63;;
31224;SDS011;17847;31.524;74.366;2023-09-07T12:51:07;19.80;;;10.38;;
31224;SDS011;17847;31.524;74.366;2023-09-07T12:54:00;20.77;;;10.15;;
31224;SDS011;17847;31.524;74.366;2023-09-07T12:56:54;21.98;;;10.23;;
31224;SDS011;17847;31.524;74.366;2023-09-07T12:59:46;20.58;;;9.15;;
31224;SDS011;17847;31.524;74.366;2023-09-07T13:02:45;21.38;;;9.57;;
31224;SDS011;17847;31.524;74.366;2023-09-07T13:05:35;24.35;;;10.23;;
31224;SDS011;17847;31.524;74.366;2023-09-07T13:08:30;21.15;;;10.98;;
31224;SDS011;17847;31.524;74.366;2023-09-07T13:11:23;25.67;;;10.27;;
31224;SDS011;17847;31.524;74.366;2023-09-07T13:17:11;24.10;;;10.95;;
31224;SDS011;17847;31.524;74.366;2023-09-07T13:20:06;19.75;;;10.00;;
31224;SDS011;17847;31.524;74.366;2023-09-07T13:22:59;22.50;;;9.68;;
31224;SDS011;17847;31.524;74.366;2023-09-07T13:25:56;27.30;;;9.93;;
31224;SDS011;17847;31.524;74.366;2023-09-07T13:28:52;29.17;;;9.57;;
31224;SDS011;17847;31.524;74.366;2023-09-07T13:34:41;20.35;;;9.68;;
31224;SDS011;17847;31.524;74.366;2023-09-07T13:37:42;19.63;;;10.05;;
31224;SDS011;17847;31.524;74.366;2023-09-07T13:40:33;31.30;;;9.93;;
31224;SDS011;17847;31.524;74.366;2023-09-07T13:43:24;22.13;;;10.50;;
31224;SDS011;17847;31.524;74.366;2023-09-07T13:46:19;26.65;;;10.30;;
31224;SDS011;17847;31.524;74.366;2023-09-07T13:49:16;23.25;;;10.82;;
31224;SDS011;17847;31.524;74.366;2023-09-07T13:52:10;29.50;;;10.35;;
31224;SDS011;17847;31.524;74.366;2023-09-07T13:55:16;25.40;;;11.00;;
31224;SDS011;17847;31.524;74.366;2023-09-07T13:58:06;22.23;;;10.30;;
31224;SDS011;17847;31.524;74.366;2023-09-07T14:00:57;19.83;;;10.30;;
31224;SDS011;17847;31.524;74.366;2023-09-07T14:03:53;19.10;;;10.77;;
31224;SDS011;17847;31.524;74.366;2023-09-07T14:06:48;15.77;;;10.10;;
31224;SDS011;17847;31.524;74.366;2023-09-07T14:09:40;25.80;;;12.35;;
31224;SDS011;17847;31.524;74.366;2023-09-07T14:12:30;25.30;;;11.43;;
31224;SDS011;17847;31.524;74.366;2023-09-07T14:15:21;26.00;;;11.25;;
31224;SDS011;17847;31.524;74.366;2023-09-07T14:18:16;17.80;;;10.43;;
31224;SDS011;17847;31.524;74.366;2023-09-07T14:21:08;24.73;;;10.98;;
31224;SDS011;17847;31.524;74.366;2023-09-07T14:24:00;24.77;;;11.15;;
31224;SDS011;17847;31.524;74.366;2023-09-07T14:26:55;26.73;;;12.02;;
31224;SDS011;17847;31.524;74.366;2023-09-07T14:29:50;24.55;;;11.38;;
31224;SDS011;17847;31.524;74.366;2023-09-07T14:32:39;21.00;;;11.35;;
31224;SDS011;17847;31.524;74.366;2023-09-07T14:35:29;26.25;;;11.48;;
31224;SDS011;17847;31.524;74.366;2023-09-07T14:38:19;18.35;;;11.10;;
31224;SDS011;17847;31.524;74.366;2023-09-07T14:41:09;26.77;;;11.40;;
31224;SDS011;17847;31.524;74.366;2023-09-07T14:44:11;23.80;;;10.63;;
31224;SDS011;17847;31.524;74.366;2023-09-07T14:47:01;25.70;;;11.57;;
31224;SDS011;17847;31.524;74.366;2023-09-07T14:49:53;24.83;;;11.27;;
31224;SDS011;17847;31.524;74.366;2023-09-07T14:52:43;23.25;;;11.77;;
31224;SDS011;17847;31.524;74.366;2023-09-07T14:55:36;24.70;;;12.30;;
31224;SDS011;17847;31.524;74.366;2023-09-07T14:58:26;21.52;;;11.35;;
31224;SDS011;17847;31.524;74.366;2023-09-07T15:01:16;23.65;;;11.75;;
31224;SDS011;17847;31.524;74.366;2023-09-07T15:04:06;20.70;;;10.75;;
31224;SDS011;17847;31.524;74.366;2023-09-07T15:06:56;21.55;;;11.98;;
31224;SDS011;17847;31.524;74.366;2023-09-07T15:09:46;20.13;;;11.40;;
31224;SDS011;17847;31.524;74.366;2023-09-07T15:12:36;28.05;;;11.25;;
31224;SDS011;17847;31.524;74.366;2023-09-07T15:15:26;22.88;;;12.13;;
31224;SDS011;17847;31.524;74.366;2023-09-07T15:18:20;21.00;;;12.25;;
31224;SDS011;17847;31.524;74.366;2023-09-07T15:21:10;24.15;;;11.75;;
31224;SDS011;17847;31.524;74.366;2023-09-07T15:24:00;31.02;;;13.65;;
31224;SDS011;17847;31.524;74.366;2023-09-07T15:26:50;27.52;;;11.23;;
31224;SDS011;17847;31.524;74.366;2023-09-07T15:29:40;20.58;;;11.57;;
31224;SDS011;17847;31.524;74.366;2023-09-07T15:32:30;27.98;;;11.70;;
31224;SDS011;17847;31.524;74.366;2023-09-07T15:35:20;21.45;;;12.45;;
31224;SDS011;17847;31.524;74.366;2023-09-07T15:38:11;24.10;;;12.95;;
31224;SDS011;17847;31.524;74.366;2023-09-07T15:41:02;26.88;;;12.68;;
31224;SDS011;17847;31.524;74.366;2023-09-07T15:43:56;23.10;;;13.07;;
31224;SDS011;17847;31.524;74.366;2023-09-07T15:46:49;25.85;;;12.30;;
31224;SDS011;17847;31.524;74.366;2023-09-07T15:49:42;27.75;;;13.35;;
31224;SDS011;17847;31.524;74.366;2023-09-07T15:52:44;27.67;;;13.75;;
31224;SDS011;17847;31.524;74.366;2023-09-07T15:55:50;30.17;;;13.57;;
31224;SDS011;17847;31.524;74.366;2023-09-07T15:58:40;28.77;;;14.15;;
31224;SDS011;17847;31.524;74.366;2023-09-07T16:01:30;25.95;;;14.10;;
31224;SDS011;17847;31.524;74.366;2023-09-07T16:04:20;23.27;;;13.02;;
31224;SDS011;17847;31.524;74.366;2023-09-07T16:07:10;34.40;;;14.75;;
31224;SDS011;17847;31.524;74.366;2023-09-07T16:10:01;22.63;;;12.65;;
31224;SDS011;17847;31.524;74.366;2023-09-07T16:12:51;23.73;;;12.40;;
31224;SDS011;17847;31.524;74.366;2023-09-07T16:15:42;25.40;;;13.60;;
31224;SDS011;17847;31.524;74.366;2023-09-07T16:18:31;28.52;;;13.02;;
31224;SDS011;17847;31.524;74.366;2023-09-07T16:21:22;25.83;;;12.90;;
31224;SDS011;17847;31.524;74.366;2023-09-07T16:24:12;21.60;;;13.07;;
31224;SDS011;17847;31.524;74.366;2023-09-07T16:27:01;26.92;;;13.27;;
31224;SDS011;17847;31.524;74.366;2023-09-07T16:29:51;20.08;;;12.02;;
31224;SDS011;17847;31.524;74.366;2023-09-07T16:32:41;28.88;;;13.18;;
31224;SDS011;17847;31.524;74.366;2023-09-07T16:35:31;26.92;;;13.30;;
31224;SDS011;17847;31.524;74.366;2023-09-07T16:38:23;23.92;;;14.23;;
31224;SDS011;17847;31.524;74.366;2023-09-07T16:41:13;29.08;;;13.98;;
31224;SDS011;17847;31.524;74.366;2023-09-07T16:44:06;24.58;;;14.75;;
31224;SDS011;17847;31.524;74.366;2023-09-07T16:47:12;25.20;;;15.10;;
31224;SDS011;17847;31.524;74.366;2023-09-07T16:50:07;24.98;;;14.40;;